sensor_id;sensor_type;location;lat;lon;timestamp;pressure;altitude;pressure_sealevel;temperature;humidity
21588;BME280;10956;48.878;13.316;2022-11-15T00:01:42;94207.94;;;5.68;100.00
21588;BME280;10956;48.878;13.316;2022-11-15T00:04:07;94201.03;;;5.62;100.00
21588;BME280;10956;48.878;13.316;2022-11-15T00:06:32;94200.00;;;5.63;100.00
21588;BME280;10956;48.878;13.316;2022-11-15T00:08:59;94193.97;;;5.62;100.00
21588;BME280;10956;48.878;13.316;2022-11-15T00:11:24;94187.94;;;5.62;100.00
21588;BME280;10956;48.878;13.316;2022-11-15T00:13:50;94184.31;;;5.63;100.00
21588;BME280;10956;48.878;13.316;2022-11-15T00:16:15;94187.75;;;5.51;100.00
21588;BME280;10956;48.878;13.316;2022-11-15T00:18:41;94189.63;;;5.39;100.00
21588;BME280;10956;48.878;13.316;2022-11-15T00:21:10;94192.34;;;5.44;100.00
21588;BME280;10956;48.878;13.316;2022-11-15T00:23:36;94186.66;;;5.47;100.00
21588;BME280;10956;48.878;13.316;2022-11-15T00:26:02;94184.91;;;5.53;100.00
21588;BME280;10956;48.878;13.316;2022-11-15T00:28:28;94186.84;;;5.58;100.00
21588;BME280;10956;48.878;13.316;2022-11-15T00:31:03;94183.50;;;5.62;100.00
21588;BME280;10956;48.878;13.316;2022-11-15T00:33:29;94180.19;;;5.67;100.00
21588;BME280;10956;48.878;13.316;2022-11-15T00:36:05;94185.75;;;5.70;100.00
21588;BME280;10956;48.878;13.316;2022-11-15T00:38:35;94182.91;;;5.72;100.00
21588;BME280;10956;48.878;13.316;2022-11-15T00:41:02;94183.91;;;5.71;100.00
21588;BME280;10956;48.878;13.316;2022-11-15T00:43:28;94179.47;;;5.71;100.00
21588;BME280;10956;48.878;13.316;2022-11-15T00:45:53;94183.69;;;5.72;100.00
21588;BME280;10956;48.878;13.316;2022-11-15T00:48:19;94179.41;;;5.66;100.00
21588;BME280;10956;48.878;13.316;2022-11-15T00:50:44;94168.16;;;5.66;100.00
21588;BME280;10956;48.878;13.316;2022-11-15T00:53:10;94168.94;;;5.66;100.00
21588;BME280;10956;48.878;13.316;2022-11-15T00:55:36;94173.53;;;5.59;100.00
21588;BME280;10956;48.878;13.316;2022-11-15T00:58:01;94179.22;;;5.56;100.00
21588;BME280;10956;48.878;13.316;2022-11-15T01:00:27;94171.63;;;5.55;100.00
21588;BME280;10956;48.878;13.316;2022-11-15T01:02:53;94170.03;;;5.54;100.00
21588;BME280;10956;48.878;13.316;2022-11-15T01:05:18;94161.06;;;5.49;100.00
21588;BME280;10956;48.878;13.316;2022-11-15T01:07:44;94160.50;;;5.47;100.00
21588;BME280;10956;48.878;13.316;2022-11-15T01:10:10;94164.16;;;5.46;100.00
21588;BME280;10956;48.878;13.316;2022-11-15T01:12:35;94163.81;;;5.43;100.00
21588;BME280;10956;48.878;13.316;2022-11-15T01:15:01;94158.75;;;5.36;100.00
21588;BME280;10956;48.878;13.316;2022-11-15T01:17:27;94166.59;;;5.36;100.00
21588;BME280;10956;48.878;13.316;2022-11-15T01:19:52;94161.59;;;5.35;100.00
21588;BME280;10956;48.878;13.316;2022-11-15T01:22:18;94156.28;;;5.30;100.00
21588;BME280;10956;48.878;13.316;2022-11-15T01:24:43;94156.41;;;5.23;100.00
21588;BME280;10956;48.878;13.316;2022-11-15T01:27:09;94152.78;;;5.24;100.00
21588;BME280;10956;48.878;13.316;2022-11-15T01:29:35;94155.16;;;5.26;100.00
21588;BME280;10956;48.878;13.316;2022-11-15T01:32:00;94138.31;;;5.33;100.00
21588;BME280;10956;48.878;13.316;2022-11-15T01:34:26;94152.41;;;5.32;100.00
21588;BME280;10956;48.878;13.316;2022-11-15T01:36:51;94149.22;;;5.30;100.00
21588;BME280;10956;48.878;13.316;2022-11-15T01:39:16;94150.44;;;5.11;100.00
21588;BME280;10956;48.878;13.316;2022-11-15T01:41:42;94149.88;;;5.09;100.00
21588;BME280;10956;48.878;13.316;2022-11-15T01:47:20;94137.47;;;5.16;100.00
21588;BME280;10956;48.878;13.316;2022-11-15T01:49:55;94130.75;;;5.20;100.00
21588;BME280;10956;48.878;13.316;2022-11-15T01:52:25;94128.69;;;5.22;100.00
21588;BME280;10956;48.878;13.316;2022-11-15T01:54:56;94137.31;;;5.23;100.00
21588;BME280;10956;48.878;13.316;2022-11-15T01:57:24;94136.53;;;5.22;100.00
21588;BME280;10956;48.878;13.316;2022-11-15T01:59:49;94126.09;;;5.22;100.00
21588;BME280;10956;48.878;13.316;2022-11-15T02:02:15;94138.13;;;5.23;100.00
21588;BME280;10956;48.878;13.316;2022-11-15T02:04:46;94128.69;;;5.22;100.00
21588;BME280;10956;48.878;13.316;2022-11-15T02:07:14;94129.16;;;5.19;100.00
21588;BME280;10956;48.878;13.316;2022-11-15T02:09:41;94127.03;;;5.16;100.00
21588;BME280;10956;48.878;13.316;2022-11-15T02:12:08;94120.91;;;5.10;100.00
21588;BME280;10956;48.878;13.316;2022-11-15T02:14:36;94124.63;;;5.14;100.00
21588;BME280;10956;48.878;13.316;2022-11-15T02:22:26;94110.69;;;5.09;100.00
21588;BME280;10956;48.878;13.316;2022-11-15T02:30:37;94101.75;;;5.05;100.00
21588;BME280;10956;48.878;13.316;2022-11-15T02:33:32;94099.00;;;5.11;100.00
21588;BME280;10956;48.878;13.316;2022-11-15T02:36:06;94103.28;;;5.17;100.00
21588;BME280;10956;48.878;13.316;2022-11-15T02:38:40;94100.09;;;5.15;100.00
21588;BME280;10956;48.878;13.316;2022-11-15T02:41:20;94090.88;;;5.25;100.00
21588;BME280;10956;48.878;13.316;2022-11-15T02:43:56;94091.09;;;5.23;100.00
21588;BME280;10956;48.878;13.316;2022-11-15T02:46:37;94091.09;;;5.23;100.00
21588;BME280;10956;48.878;13.316;2022-11-15T02:49:29;94088.25;;;5.25;100.00
21588;BME280;10956;48.878;13.316;2022-11-15T02:51:56;94084.06;;;5.24;100.00
21588;BME280;10956;48.878;13.316;2022-11-15T02:54:28;94087.94;;;5.21;100.00
21588;BME280;10956;48.878;13.316;2022-11-15T02:57:02;94084.75;;;5.19;100.00
21588;BME280;10956;48.878;13.316;2022-11-15T03:08:06;94088.88;;;5.15;100.00
21588;BME280;10956;48.878;13.316;2022-11-15T03:13:28;94080.94;;;5.10;100.00
21588;BME280;10956;48.878;13.316;2022-11-15T03:16:14;94081.63;;;5.05;100.00
21588;BME280;10956;48.878;13.316;2022-11-15T03:18:48;94084.47;;;5.04;100.00
21588;BME280;10956;48.878;13.316;2022-11-15T03:21:18;94083.47;;;5.05;100.00
21588;BME280;10956;48.878;13.316;2022-11-15T03:23:47;94078.69;;;5.02;100.00
21588;BME280;10956;48.878;13.316;2022-11-15T03:26:16;94076.00;;;4.97;100.00
21588;BME280;10956;48.878;13.316;2022-11-15T03:28:54;94072.81;;;4.95;100.00
21588;BME280;10956;48.878;13.316;2022-11-15T03:31:22;94071.56;;;4.97;100.00
21588;BME280;10956;48.878;13.316;2022-11-15T03:34:11;94073.28;;;4.92;100.00
21588;BME280;10956;48.878;13.316;2022-11-15T03:36:40;94080.47;;;4.84;100.00
21588;BME280;10956;48.878;13.316;2022-11-15T03:39:07;94073.09;;;4.81;100.00
21588;BME280;10956;48.878;13.316;2022-11-15T03:41:44;94076.09;;;4.73;100.00
21588;BME280;10956;48.878;13.316;2022-11-15T03:44:23;94069.50;;;4.71;100.00
21588;BME280;10956;48.878;13.316;2022-11-15T03:47:21;94065.09;;;4.71;100.00
21588;BME280;10956;48.878;13.316;2022-11-15T03:49:52;94064.06;;;4.72;100.00
21588;BME280;10956;48.878;13.316;2022-11-15T03:52:20;94060.97;;;4.75;100.00
21588;BME280;10956;48.878;13.316;2022-11-15T03:54:54;94060.28;;;4.80;100.00
21588;BME280;10956;48.878;13.316;2022-11-15T03:57:20;94057.44;;;4.81;100.00
21588;BME280;10956;48.878;13.316;2022-11-15T03:59:46;94055.38;;;4.83;100.00
21588;BME280;10956;48.878;13.316;2022-11-15T04:02:11;94054.13;;;4.86;100.00
21588;BME280;10956;48.878;13.316;2022-11-15T04:04:37;94053.81;;;4.82;100.00
21588;BME280;10956;48.878;13.316;2022-11-15T04:07:02;94053.25;;;4.80;100.00
21588;BME280;10956;48.878;13.316;2022-11-15T04:09:28;94045.50;;;4.85;100.00
21588;BME280;10956;48.878;13.316;2022-11-15T04:11:53;94050.50;;;4.87;100.00
21588;BME280;10956;48.878;13.316;2022-11-15T04:14:19;94047.66;;;4.89;100.00
21588;BME280;10956;48.878;13.316;2022-11-15T04:16:44;94057.31;;;4.88;100.00
21588;BME280;10956;48.878;13.316;2022-11-15T04:19:09;94050.81;;;4.91;100.00
21588;BME280;10956;48.878;13.316;2022-11-15T04:21:53;94052.72;;;4.95;100.00
21588;BME280;10956;48.878;13.316;2022-11-15T04:24:37;94051.00;;;5.01;100.00
21588;BME280;10956;48.878;13.316;2022-11-15T04:27:03;94048.69;;;4.88;100.00
21588;BME280;10956;48.878;13.316;2022-11-15T04:29:28;94045.88;;;4.77;100.00
21588;BME280;10956;48.878;13.316;2022-11-15T04:32:00;94043.16;;;4.72;100.00
21588;BME280;10956;48.878;13.316;2022-11-15T04:34:26;94040.34;;;4.74;100.00
21588;BME280;10956;48.878;13.316;2022-11-15T04:36:51;94035.44;;;4.77;100.00
21588;BME280;10956;48.878;13.316;2022-11-15T04:39:35;94032.44;;;4.85;100.00
21588;BME280;10956;48.878;13.316;2022-11-15T04:42:00;94031.72;;;4.73;100.00
21588;BME280;10956;48.878;13.316;2022-11-15T04:44:26;94026.25;;;4.75;100.00
21588;BME280;10956;48.878;13.316;2022-11-15T04:46:51;94028.63;;;4.76;100.00
21588;BME280;10956;48.878;13.316;2022-11-15T04:49:17;94023.97;;;4.78;100.00
21588;BME280;10956;48.878;13.316;2022-11-15T04:51:42;94024.84;;;4.84;100.00
21588;BME280;10956;48.878;13.316;2022-11-15T04:54:08;94022.00;;;4.85;100.00
21588;BME280;10956;48.878;13.316;2022-11-15T04:56:33;94022.38;;;4.77;100.00
21588;BME280;10956;48.878;13.316;2022-11-15T04:58:58;94021.63;;;4.65;100.00
21588;BME280;10956;48.878;13.316;2022-11-15T05:01:24;94019.59;;;4.67;100.00
21588;BME280;10956;48.878;13.316;2022-11-15T05:03:49;94011.53;;;4.69;100.00
21588;BME280;10956;48.878;13.316;2022-11-15T05:06:33;94006.06;;;4.70;100.00
21588;BME280;10956;48.878;13.316;2022-11-15T05:08:59;94014.47;;;4.72;100.00
21588;BME280;10956;48.878;13.316;2022-11-15T05:11:24;94011.16;;;4.77;100.00
21588;BME280;10956;48.878;13.316;2022-11-15T05:13:50;94009.75;;;4.86;100.00
21588;BME280;10956;48.878;13.316;2022-11-15T05:16:15;94010.16;;;4.95;100.00
21588;BME280;10956;48.878;13.316;2022-11-15T05:18:41;94000.34;;;5.02;100.00
21588;BME280;10956;48.878;13.316;2022-11-15T05:21:09;93997.66;;;4.97;100.00
21588;BME280;10956;48.878;13.316;2022-11-15T05:23:35;93993.56;;;5.01;100.00
21588;BME280;10956;48.878;13.316;2022-11-15T05:26:02;93996.94;;;5.01;100.00
21588;BME280;10956;48.878;13.316;2022-11-15T05:28:28;93991.03;;;5.06;100.00
21588;BME280;10956;48.878;13.316;2022-11-15T05:31:06;93998.84;;;5.06;100.00
21588;BME280;10956;48.878;13.316;2022-11-15T05:33:33;93995.78;;;5.09;100.00
21588;BME280;10956;48.878;13.316;2022-11-15T05:36:04;93996.09;;;5.12;100.00
21588;BME280;10956;48.878;13.316;2022-11-15T05:38:30;93986.44;;;5.13;100.00
21588;BME280;10956;48.878;13.316;2022-11-15T05:40:56;93986.44;;;5.13;100.00
21588;BME280;10956;48.878;13.316;2022-11-15T05:43:22;93987.47;;;5.12;100.00
21588;BME280;10956;48.878;13.316;2022-11-15T05:45:48;93983.50;;;5.09;100.00
21588;BME280;10956;48.878;13.316;2022-11-15T05:48:14;93982.94;;;5.07;100.00
21588;BME280;10956;48.878;13.316;2022-11-15T05:50:43;93982.16;;;5.07;100.00
21588;BME280;10956;48.878;13.316;2022-11-15T05:53:12;93977.97;;;5.06;100.00
21588;BME280;10956;48.878;13.316;2022-11-15T05:55:38;93981.06;;;5.03;100.00
21588;BME280;10956;48.878;13.316;2022-11-15T05:58:05;93979.38;;;4.97;100.00
21588;BME280;10956;48.878;13.316;2022-11-15T06:00:30;93969.31;;;4.89;100.00
21588;BME280;10956;48.878;13.316;2022-11-15T06:02:56;93973.44;;;4.84;100.00
21588;BME280;10956;48.878;13.316;2022-11-15T06:05:21;93975.47;;;4.82;100.00
21588;BME280;10956;48.878;13.316;2022-11-15T06:07:47;93975.00;;;4.85;100.00
21588;BME280;10956;48.878;13.316;2022-11-15T06:10:12;93975.00;;;4.85;100.00
21588;BME280;10956;48.878;13.316;2022-11-15T06:12:37;93975.00;;;4.85;100.00
21588;BME280;10956;48.878;13.316;2022-11-15T06:15:03;93969.88;;;4.91;100.00
21588;BME280;10956;48.878;13.316;2022-11-15T06:17:28;93973.53;;;4.90;100.00
21588;BME280;10956;48.878;13.316;2022-11-15T06:19:54;93970.91;;;4.90;100.00
21588;BME280;10956;48.878;13.316;2022-11-15T06:22:19;93969.41;;;4.94;100.00
21588;BME280;10956;48.878;13.316;2022-11-15T06:24:45;93963.72;;;4.97;100.00
21588;BME280;10956;48.878;13.316;2022-11-15T06:27:11;93968.38;;;4.95;100.00
21588;BME280;10956;48.878;13.316;2022-11-15T06:29:36;93966.00;;;4.93;100.00
21588;BME280;10956;48.878;13.316;2022-11-15T06:32:02;93964.00;;;4.83;100.00
21588;BME280;10956;48.878;13.316;2022-11-15T06:34:27;93956.97;;;4.84;100.00
21588;BME280;10956;48.878;13.316;2022-11-15T06:36:53;93960.94;;;4.86;100.00
21588;BME280;10956;48.878;13.316;2022-11-15T06:39:18;93962.03;;;4.91;100.00
21588;BME280;10956;48.878;13.316;2022-11-15T06:41:44;93957.94;;;4.95;100.00
21588;BME280;10956;48.878;13.316;2022-11-15T06:44:09;93954.28;;;4.96;100.00
21588;BME280;10956;48.878;13.316;2022-11-15T06:46:34;93957.47;;;4.98;100.00
21588;BME280;10956;48.878;13.316;2022-11-15T06:49:00;93959.84;;;4.99;100.00
21588;BME280;10956;48.878;13.316;2022-11-15T06:51:25;93949.16;;;5.01;100.00
21588;BME280;10956;48.878;13.316;2022-11-15T06:53:50;93955.50;;;5.05;100.00
21588;BME280;10956;48.878;13.316;2022-11-15T06:56:16;93957.38;;;5.09;100.00
21588;BME280;10956;48.878;13.316;2022-11-15T06:58:41;93957.47;;;5.14;100.00
21588;BME280;10956;48.878;13.316;2022-11-15T07:01:09;93956.19;;;5.17;100.00
21588;BME280;10956;48.878;13.316;2022-11-15T07:03:37;93961.09;;;5.13;100.00
21588;BME280;10956;48.878;13.316;2022-11-15T07:06:03;93970.38;;;5.04;100.00
21588;BME280;10956;48.878;13.316;2022-11-15T07:08:28;93964.97;;;4.94;100.00
21588;BME280;10956;48.878;13.316;2022-11-15T07:10:57;93969.41;;;4.94;100.00
21588;BME280;10956;48.878;13.316;2022-11-15T07:13:25;93969.97;;;4.96;100.00
21588;BME280;10956;48.878;13.316;2022-11-15T07:15:50;93971.53;;;4.97;100.00
21588;BME280;10956;48.878;13.316;2022-11-15T07:18:16;93967.19;;;5.02;100.00
21588;BME280;10956;48.878;13.316;2022-11-15T07:20:41;93960.25;;;5.08;100.00
21588;BME280;10956;48.878;13.316;2022-11-15T07:23:06;93953.03;;;5.15;100.00
21588;BME280;10956;48.878;13.316;2022-11-15T07:25:32;93949.47;;;5.21;100.00
21588;BME280;10956;48.878;13.316;2022-11-15T07:27:58;93950.03;;;5.23;100.00
21588;BME280;10956;48.878;13.316;2022-11-15T07:30:24;93951.94;;;5.28;100.00
21588;BME280;10956;48.878;13.316;2022-11-15T07:32:57;93945.91;;;5.27;100.00
21588;BME280;10956;48.878;13.316;2022-11-15T07:35:24;93953.75;;;5.27;100.00
21588;BME280;10956;48.878;13.316;2022-11-15T07:38:01;93953.28;;;5.30;100.00
21588;BME280;10956;48.878;13.316;2022-11-15T07:40:29;93956.75;;;5.36;100.00
21588;BME280;10956;48.878;13.316;2022-11-15T07:43:05;93952.16;;;5.43;100.00
21588;BME280;10956;48.878;13.316;2022-11-15T07:45:31;93951.44;;;5.47;100.00
21588;BME280;10956;48.878;13.316;2022-11-15T07:47:59;93953.50;;;5.45;100.00
21588;BME280;10956;48.878;13.316;2022-11-15T07:50:25;93946.75;;;5.49;100.00
21588;BME280;10956;48.878;13.316;2022-11-15T07:52:58;93946.34;;;5.58;100.00
21588;BME280;10956;48.878;13.316;2022-11-15T07:55:26;93941.66;;;5.60;100.00
21588;BME280;10956;48.878;13.316;2022-11-15T07:57:52;93943.56;;;5.64;100.00
21588;BME280;10956;48.878;13.316;2022-11-15T08:00:18;93949.34;;;5.66;100.00
21588;BME280;10956;48.878;13.316;2022-11-15T08:02:44;93946.50;;;5.68;100.00
21588;BME280;10956;48.878;13.316;2022-11-15T08:05:10;93946.56;;;5.73;100.00
21588;BME280;10956;48.878;13.316;2022-11-15T08:07:35;93952.09;;;5.76;100.00
21588;BME280;10956;48.878;13.316;2022-11-15T08:10:01;93945.03;;;5.77;100.00
21588;BME280;10956;48.878;13.316;2022-11-15T08:12:27;93946.16;;;5.81;100.00
21588;BME280;10956;48.878;13.316;2022-11-15T08:14:54;93939.31;;;5.80;100.00
21588;BME280;10956;48.878;13.316;2022-11-15T08:17:20;93929.97;;;5.84;100.00
21588;BME280;10956;48.878;13.316;2022-11-15T08:19:46;93931.56;;;5.85;100.00
21588;BME280;10956;48.878;13.316;2022-11-15T08:22:11;93932.69;;;5.89;100.00
21588;BME280;10956;48.878;13.316;2022-11-15T08:24:37;93928.53;;;5.93;100.00
21588;BME280;10956;48.878;13.316;2022-11-15T08:27:02;93922.34;;;5.99;100.00
21588;BME280;10956;48.878;13.316;2022-11-15T08:29:27;93923.75;;;6.07;100.00
21588;BME280;10956;48.878;13.316;2022-11-15T08:31:55;93923.56;;;6.13;100.00
21588;BME280;10956;48.878;13.316;2022-11-15T08:34:21;93922.09;;;6.23;100.00
21588;BME280;10956;48.878;13.316;2022-11-15T08:36:46;93919.53;;;6.28;100.00
21588;BME280;10956;48.878;13.316;2022-11-15T08:39:12;93921.09;;;6.29;100.00
21588;BME280;10956;48.878;13.316;2022-11-15T08:41:38;93921.09;;;6.29;100.00
21588;BME280;10956;48.878;13.316;2022-11-15T08:44:04;93918.50;;;6.29;100.00
21588;BME280;10956;48.878;13.316;2022-11-15T08:46:30;93922.16;;;6.28;100.00
21588;BME280;10956;48.878;13.316;2022-11-15T08:48:55;93919.53;;;6.28;100.00
21588;BME280;10956;48.878;13.316;2022-11-15T08:51:21;93916.38;;;6.26;100.00
21588;BME280;10956;48.878;13.316;2022-11-15T08:53:46;93913.50;;;6.27;100.00
21588;BME280;10956;48.878;13.316;2022-11-15T08:56:14;93917.16;;;6.26;100.00
21588;BME280;10956;48.878;13.316;2022-11-15T08:58:40;93909.59;;;6.30;100.00
21588;BME280;10956;48.878;13.316;2022-11-15T09:01:06;93912.28;;;6.35;100.00
21588;BME280;10956;48.878;13.316;2022-11-15T09:03:40;93907.09;;;6.40;100.00
21588;BME280;10956;48.878;13.316;2022-11-15T09:06:05;93909.28;;;6.48;100.00
21588;BME280;10956;48.878;13.316;2022-11-15T09:08:31;93907.78;;;6.57;100.00
21588;BME280;10956;48.878;13.316;2022-11-15T09:10:56;93915.69;;;6.62;100.00
21588;BME280;10956;48.878;13.316;2022-11-15T09:13:22;93915.19;;;6.65;100.00
21588;BME280;10956;48.878;13.316;2022-11-15T09:15:47;93904.81;;;6.75;100.00
21588;BME280;10956;48.878;13.316;2022-11-15T09:18:13;93903.81;;;6.82;100.00
21588;BME280;10956;48.878;13.316;2022-11-15T09:20:38;93904.09;;;6.85;100.00
21588;BME280;10956;48.878;13.316;2022-11-15T09:23:04;93909.16;;;6.92;100.00
21588;BME280;10956;48.878;13.316;2022-11-15T09:25:30;93898.16;;;6.95;100.00
21588;BME280;10956;48.878;13.316;2022-11-15T09:27:56;93895.59;;;7.00;100.00
21588;BME280;10956;48.878;13.316;2022-11-15T09:30:23;93900.31;;;7.03;100.00
21588;BME280;10956;48.878;13.316;2022-11-15T09:32:48;93894.59;;;7.06;100.00
21588;BME280;10956;48.878;13.316;2022-11-15T09:35:14;93895.16;;;7.13;100.00
21588;BME280;10956;48.878;13.316;2022-11-15T09:37:39;93893.66;;;7.22;100.00
21588;BME280;10956;48.878;13.316;2022-11-15T09:40:05;93889.50;;;7.26;100.00
21588;BME280;10956;48.878;13.316;2022-11-15T09:45:28;93880.44;;;7.44;100.00
21588;BME280;10956;48.878;13.316;2022-11-15T09:50:45;93875.03;;;7.66;100.00
21588;BME280;10956;48.878;13.316;2022-11-15T09:58:29;93859.97;;;7.98;100.00
21588;BME280;10956;48.878;13.316;2022-11-15T10:01:00;93853.41;;;8.01;100.00
21588;BME280;10956;48.878;13.316;2022-11-15T10:03:34;93847.66;;;8.04;100.00
21588;BME280;10956;48.878;13.316;2022-11-15T10:06:04;93845.84;;;8.15;100.00
21588;BME280;10956;48.878;13.316;2022-11-15T10:08:34;93842.69;;;8.18;100.00
21588;BME280;10956;48.878;13.316;2022-11-15T10:11:06;93838.25;;;8.18;100.00
21588;BME280;10956;48.878;13.316;2022-11-15T10:13:35;93836.44;;;8.29;100.00
21588;BME280;10956;48.878;13.316;2022-11-15T10:24:27;93819.69;;;8.50;100.00
21588;BME280;10956;48.878;13.316;2022-11-15T10:26:54;93824.69;;;8.57;100.00
21588;BME280;10956;48.878;13.316;2022-11-15T10:29:22;93813.91;;;8.63;100.00
21588;BME280;10956;48.878;13.316;2022-11-15T10:31:47;93814.97;;;8.67;100.00
21588;BME280;10956;48.878;13.316;2022-11-15T10:34:17;93805.50;;;8.71;100.00
21588;BME280;10956;48.878;13.316;2022-11-15T10:36:57;93805.50;;;8.71;100.00
21588;BME280;10956;48.878;13.316;2022-11-15T10:39:23;93798.41;;;8.77;100.00
21588;BME280;10956;48.878;13.316;2022-11-15T10:41:49;93804.97;;;8.80;100.00
21588;BME280;10956;48.878;13.316;2022-11-15T10:44:24;93799.19;;;8.83;100.00
21588;BME280;10956;48.878;13.316;2022-11-15T10:52:16;93773.44;;;8.90;100.00
21588;BME280;10956;48.878;13.316;2022-11-15T10:54:48;93760.84;;;8.87;100.00
21588;BME280;10956;48.878;13.316;2022-11-15T10:57:17;93765.56;;;8.95;100.00
21588;BME280;10956;48.878;13.316;2022-11-15T10:59:54;93761.88;;;9.01;100.00
21588;BME280;10956;48.878;13.316;2022-11-15T11:02:28;93751.34;;;9.06;100.00
21588;BME280;10956;48.878;13.316;2022-11-15T11:04:55;93754.22;;;9.10;100.00
21588;BME280;10956;48.878;13.316;2022-11-15T11:07:23;93740.28;;;9.14;100.00
21588;BME280;10956;48.878;13.316;2022-11-15T11:09:57;93737.13;;;9.17;100.00
21588;BME280;10956;48.878;13.316;2022-11-15T11:12:31;93726.59;;;9.22;100.00
21588;BME280;10956;48.878;13.316;2022-11-15T11:15:09;93728.69;;;9.25;100.00
21588;BME280;10956;48.878;13.316;2022-11-15T11:18:05;93723.16;;;9.27;100.00
21588;BME280;10956;48.878;13.316;2022-11-15T11:23:19;93711.81;;;9.31;100.00
21588;BME280;10956;48.878;13.316;2022-11-15T11:31:32;93706.00;;;9.45;100.00
21588;BME280;10956;48.878;13.316;2022-11-15T11:34:15;93708.88;;;9.48;100.00
21588;BME280;10956;48.878;13.316;2022-11-15T11:42:48;93689.88;;;9.61;100.00
21588;BME280;10956;48.878;13.316;2022-11-15T11:48:27;93685.59;;;9.70;100.00
21588;BME280;10956;48.878;13.316;2022-11-15T11:51:07;93676.91;;;9.75;100.00
21588;BME280;10956;48.878;13.316;2022-11-15T11:56:29;93672.13;;;9.82;100.00
21588;BME280;10956;48.878;13.316;2022-11-15T11:59:05;93669.44;;;9.87;100.00
21588;BME280;10956;48.878;13.316;2022-11-15T12:01:39;93653.13;;;9.90;100.00
21588;BME280;10956;48.878;13.316;2022-11-15T12:06:58;93646.09;;;10.15;100.00
21588;BME280;10956;48.878;13.316;2022-11-15T12:09:44;93636.06;;;10.17;100.00
21588;BME280;10956;48.878;13.316;2022-11-15T12:12:21;93629.22;;;10.16;100.00
21588;BME280;10956;48.878;13.316;2022-11-15T12:14:53;93631.34;;;10.14;100.00
21588;BME280;10956;48.878;13.316;2022-11-15T12:17:26;93628.66;;;10.19;100.00
21588;BME280;10956;48.878;13.316;2022-11-15T12:19:58;93630.78;;;10.17;100.00
21588;BME280;10956;48.878;13.316;2022-11-15T12:25:25;93619.47;;;10.16;100.00
21588;BME280;10956;48.878;13.316;2022-11-15T12:27:59;93614.44;;;10.25;99.87
21588;BME280;10956;48.878;13.316;2022-11-15T12:30:39;93609.69;;;10.27;98.99
21588;BME280;10956;48.878;13.316;2022-11-15T12:36:04;93609.38;;;10.57;97.57
21588;BME280;10956;48.878;13.316;2022-11-15T12:38:55;93609.38;;;10.57;97.35
21588;BME280;10956;48.878;13.316;2022-11-15T12:41:32;93609.94;;;10.54;97.31
21588;BME280;10956;48.878;13.316;2022-11-15T12:43:59;93603.50;;;10.65;96.26
21588;BME280;10956;48.878;13.316;2022-11-15T12:49:01;93594.75;;;10.70;95.40
21588;BME280;10956;48.878;13.316;2022-11-15T12:59:55;93583.03;;;10.57;96.04
21588;BME280;10956;48.878;13.316;2022-11-15T13:02:38;93576.19;;;10.56;96.27
21588;BME280;10956;48.878;13.316;2022-11-15T13:17:54;93570.47;;;10.49;97.32
21588;BME280;10956;48.878;13.316;2022-11-15T13:23:02;93567.91;;;10.44;97.55
21588;BME280;10956;48.878;13.316;2022-11-15T13:27:56;93564.75;;;10.42;97.75
21588;BME280;10956;48.878;13.316;2022-11-15T13:30:26;93557.13;;;10.41;97.84
21588;BME280;10956;48.878;13.316;2022-11-15T13:32:52;93556.34;;;10.40;97.85
21588;BME280;10956;48.878;13.316;2022-11-15T13:35:23;93557.91;;;10.41;97.76
21588;BME280;10956;48.878;13.316;2022-11-15T13:37:50;93560.72;;;10.50;96.92
21588;BME280;10956;48.878;13.316;2022-11-15T13:40:27;93552.75;;;10.55;96.48
21588;BME280;10956;48.878;13.316;2022-11-15T13:42:56;93550.84;;;10.60;96.01
21588;BME280;10956;48.878;13.316;2022-11-15T13:45:22;93542.44;;;10.58;96.24
21588;BME280;10956;48.878;13.316;2022-11-15T13:47:57;93543.50;;;10.57;96.37
21588;BME280;10956;48.878;13.316;2022-11-15T13:50:27;93541.44;;;10.54;96.46
21588;BME280;10956;48.878;13.316;2022-11-15T13:52:58;93548.56;;;10.54;96.63
21588;BME280;10956;48.878;13.316;2022-11-15T13:55:24;93549.41;;;10.49;96.91
21588;BME280;10956;48.878;13.316;2022-11-15T13:57:54;93546.25;;;10.47;97.35
21588;BME280;10956;48.878;13.316;2022-11-15T14:00:42;93537.84;;;10.45;97.48
21588;BME280;10956;48.878;13.316;2022-11-15T14:03:27;93545.75;;;10.45;97.59
21588;BME280;10956;48.878;13.316;2022-11-15T14:06:11;93533.72;;;10.39;97.89
21588;BME280;10956;48.878;13.316;2022-11-15T14:08:42;93531.13;;;10.34;98.25
21588;BME280;10956;48.878;13.316;2022-11-15T14:11:22;93533.72;;;10.39;98.00
21588;BME280;10956;48.878;13.316;2022-11-15T14:14:02;93528.16;;;10.41;97.64
21588;BME280;10956;48.878;13.316;2022-11-15T14:18:59;93527.22;;;10.31;98.13
21588;BME280;10956;48.878;13.316;2022-11-15T14:21:25;93526.19;;;10.27;98.19
21588;BME280;10956;48.878;13.316;2022-11-15T14:23:51;93520.47;;;10.20;98.42
21588;BME280;10956;48.878;13.316;2022-11-15T14:26:46;93516.28;;;10.14;98.97
21588;BME280;10956;48.878;13.316;2022-11-15T14:29:27;93511.63;;;10.06;99.52
21588;BME280;10956;48.878;13.316;2022-11-15T14:31:55;93515.63;;;10.03;99.97
21588;BME280;10956;48.878;13.316;2022-11-15T14:34:31;93513.03;;;9.98;100.00
21588;BME280;10956;48.878;13.316;2022-11-15T14:36:57;93506.47;;;9.96;100.00
21588;BME280;10956;48.878;13.316;2022-11-15T14:39:22;93512.56;;;9.91;100.00
21588;BME280;10956;48.878;13.316;2022-11-15T14:41:49;93509.44;;;9.89;100.00
21588;BME280;10956;48.878;13.316;2022-11-15T14:44:14;93503.16;;;9.85;100.00
21588;BME280;10956;48.878;13.316;2022-11-15T14:46:43;93508.41;;;9.85;100.00
21588;BME280;10956;48.878;13.316;2022-11-15T14:49:09;93510.53;;;9.83;100.00
21588;BME280;10956;48.878;13.316;2022-11-15T14:51:34;93501.06;;;9.82;100.00